createdAt,value
2018-11-07T00:01:34.731Z,-11461.04
2018-11-07T00:04:03.185Z,-13049.54
2018-11-07T00:06:31.612Z,-11842.82
2018-11-07T00:08:59.988Z,-10118.48
2018-11-07T00:11:28.300Z,-13404.75
2018-11-07T00:13:56.692Z,-15573.22
2018-11-07T00:16:25.099Z,-14909.00
2018-11-07T00:18:53.408Z,-12318.80
2018-11-07T00:21:21.776Z,-13831.83
2018-11-07T00:23:50.161Z,-13926.94
2018-11-07T00:26:18.658Z,-14345.18
2018-11-07T00:28:47.128Z,-14998.96
2018-11-07T00:31:15.617Z,-15158.04
2018-11-07T00:33:44.580Z,-15187.22
2018-11-07T00:36:12.966Z,-15605.15
2018-11-07T00:38:41.415Z,-15812.93
2018-11-07T00:41:16.402Z,-15887.29
2018-11-07T00:43:44.797Z,-15293.26
2018-11-07T00:46:13.139Z,-14467.39
2018-11-07T00:48:41.551Z,-13818.63
2018-11-07T00:51:09.919Z,-14636.89
2018-11-07T00:53:38.271Z,-13420.52
2018-11-07T00:56:07.482Z,-13039.31
2018-11-07T00:58:35.772Z,-16143.73
2018-11-07T01:01:04.153Z,-16292.35
2018-11-07T01:03:32.499Z,-13601.85
2018-11-07T01:06:00.915Z,-12594.31
2018-11-07T01:08:29.218Z,-15312.09
2018-11-07T01:10:57.635Z,-14758.89
2018-11-07T01:13:26.050Z,-14229.41
2018-11-07T01:15:54.437Z,-14231.92
2018-11-07T01:18:22.830Z,-16080.55
2018-11-07T01:20:51.205Z,-16845.75
2018-11-07T01:23:19.680Z,-16343.04
2018-11-07T01:25:48.038Z,-15046.43
2018-11-07T01:28:16.485Z,-14278.70
2018-11-07T01:30:44.817Z,-13172.91
2018-11-07T01:33:13.171Z,-16349.23
2018-11-07T01:35:41.531Z,-13410.03
2018-11-07T01:38:10.032Z,-15277.89
2018-11-07T01:40:38.469Z,-16925.13
2018-11-07T01:43:06.848Z,-17667.23
2018-11-07T01:45:35.139Z,-16034.66
2018-11-07T01:48:03.563Z,-15301.80
2018-11-07T01:50:31.880Z,-15840.72
2018-11-07T01:53:00.183Z,-16118.64
2018-11-07T01:55:28.540Z,-16231.17
2018-11-07T01:57:57.067Z,-15909.31
2018-11-07T02:00:25.500Z,-17792.34
2018-11-07T02:02:54.107Z,-15994.82
2018-11-07T02:05:22.452Z,-14601.75
2018-11-07T02:07:50.780Z,-13572.70
2018-11-07T02:10:19.150Z,-13829.60
2018-11-07T02:12:47.555Z,-10435.86
2018-11-07T02:15:15.956Z,-10861.46
2018-11-07T02:17:44.332Z,-14803.11
2018-11-07T02:20:13.055Z,-14509.55
2018-11-07T02:22:42.090Z,-14246.92
2018-11-07T02:25:10.524Z,-14282.84
2018-11-07T02:27:39.258Z,-12752.61
2018-11-07T02:30:10.056Z,-13552.37
2018-11-07T02:32:38.404Z,-13999.92
2018-11-07T02:35:06.716Z,-14333.81
2018-11-07T02:37:35.225Z,-16997.70
2018-11-07T02:40:03.664Z,-15196.15
2018-11-07T02:42:32.143Z,-16840.07
2018-11-07T02:45:00.543Z,-16979.86
2018-11-07T02:47:28.987Z,-16139.93
2018-11-07T02:49:57.365Z,-13571.13
2018-11-07T02:52:25.724Z,-13885.40
2018-11-07T02:54:54.031Z,-13924.34
2018-11-07T02:57:22.475Z,-14336.24
2018-11-07T02:59:50.877Z,-15879.88
2018-11-07T03:02:19.256Z,-14992.35
2018-11-07T03:04:47.671Z,-15904.90
2018-11-07T03:07:16.033Z,-17106.28
2018-11-07T03:09:44.392Z,-16077.57
2018-11-07T03:12:12.747Z,-15606.13
2018-11-07T03:14:41.060Z,-17365.19
2018-11-07T03:17:09.429Z,-16880.55
2018-11-07T03:19:37.823Z,-17072.07
2018-11-07T03:22:06.548Z,-18751.00
2018-11-07T03:24:34.909Z,-19188.77
2018-11-07T03:27:03.281Z,-18143.07
2018-11-07T03:29:31.667Z,-16973.84
2018-11-07T03:32:00.037Z,-19155.75
2018-11-07T03:34:28.357Z,-18383.91
2018-11-07T03:36:56.697Z,-18361.13
2018-11-07T03:39:25.021Z,-16838.79
2018-11-07T03:41:53.390Z,-17460.65
2018-11-07T03:44:21.723Z,-17038.63
2018-11-07T03:46:50.203Z,-18357.12
2018-11-07T03:49:18.624Z,-18500.02
2018-11-07T03:51:47.016Z,-20069.94
2018-11-07T03:54:15.308Z,-19375.75
2018-11-07T03:56:43.603Z,-19465.69
2018-11-07T03:59:11.962Z,-20002.32
2018-11-07T04:01:40.313Z,-19764.18
2018-11-07T04:04:08.704Z,-20827.94
2018-11-07T04:06:37.032Z,-21104.04
2018-11-07T04:09:08.611Z,-21114.32
2018-11-07T04:11:37.004Z,-20093.24
2018-11-07T04:14:05.923Z,-19823.07
2018-11-07T04:16:34.299Z,-18265.19
2018-11-07T04:19:02.679Z,-20511.16
2018-11-07T04:21:31.067Z,-20748.89
2018-11-07T04:24:01.586Z,-19145.36
2018-11-07T04:26:30.756Z,-18634.95
2018-11-07T04:28:59.147Z,-20425.13
2018-11-07T04:31:27.433Z,-19876.10
2018-11-07T04:33:55.736Z,-20045.30
2018-11-07T04:36:24.488Z,-19735.14
2018-11-07T04:38:53.131Z,-20359.65
2018-11-07T04:41:21.487Z,-20064.46
2018-11-07T04:43:49.824Z,-20049.50
2018-11-07T04:46:18.211Z,-20749.64
2018-11-07T04:48:46.599Z,-19516.52
2018-11-07T04:51:15.544Z,-20576.72
2018-11-07T04:53:43.956Z,-20490.72
2018-11-07T04:56:12.443Z,-20158.07
2018-11-07T04:58:40.784Z,-20649.86
2018-11-07T05:01:12.333Z,-20419.74
2018-11-07T05:03:40.753Z,-20173.74
2018-11-07T05:06:09.123Z,-20918.68
2018-11-07T05:08:37.774Z,-21102.23
2018-11-07T05:11:06.259Z,-21099.94
2018-11-07T05:13:34.838Z,-21106.78
2018-11-07T05:16:03.219Z,-20673.61
2018-11-07T05:18:31.579Z,-21095.53
2018-11-07T05:20:59.989Z,-21099.23
2018-11-07T05:23:28.441Z,-21096.10
2018-11-07T05:25:56.875Z,-21107.21
2018-11-07T05:28:25.243Z,-21099.94
2018-11-07T05:30:53.679Z,-21097.95
2018-11-07T05:33:22.118Z,-21097.38
2018-11-07T05:35:50.465Z,-21091.11
2018-11-07T05:38:18.878Z,-20876.36
2018-11-07T05:40:47.262Z,-21091.26
2018-11-07T05:43:15.636Z,-20200.98
2018-11-07T05:45:44.006Z,-21089.26
2018-11-07T05:48:12.581Z,-21087.10
2018-11-07T05:50:40.952Z,-20595.78
2018-11-07T05:53:09.432Z,-21090.26
2018-11-07T05:55:37.862Z,-21089.26
2018-11-07T05:58:06.385Z,-21087.55
2018-11-07T06:00:34.751Z,-21087.98
2018-11-07T06:03:03.131Z,-20850.51
2018-11-07T06:05:31.479Z,-21098.09
2018-11-07T06:07:59.861Z,-21084.70
2018-11-07T06:10:28.296Z,-20937.49
2018-11-07T06:12:56.712Z,-20268.54
2018-11-07T06:15:25.273Z,-20195.27
2018-11-07T06:17:53.554Z,-20597.65
2018-11-07T06:20:21.848Z,-21098.37
2018-11-07T06:22:50.253Z,-20920.38
2018-11-07T06:25:18.598Z,-21093.25
2018-11-07T06:27:47.030Z,-21096.81
2018-11-07T06:30:15.469Z,-19986.00
2018-11-07T06:32:44.032Z,-20716.23
2018-11-07T06:35:12.359Z,-20842.53
2018-11-07T06:37:40.918Z,-21099.52
2018-11-07T06:40:10.658Z,-20513.61
2018-11-07T06:42:39.154Z,-20787.56
2018-11-07T06:45:08.350Z,-21102.51
2018-11-07T06:47:36.666Z,-21104.22
2018-11-07T06:50:06.292Z,-21015.95
2018-11-07T06:52:34.654Z,-21101.52
2018-11-07T06:55:03.034Z,-20491.59
2018-11-07T06:57:31.388Z,-20181.73
2018-11-07T06:59:59.734Z,-19645.76
2018-11-07T07:02:28.043Z,-19734.22
2018-11-07T07:04:56.362Z,-19534.91
2018-11-07T07:07:24.825Z,-20449.17
2018-11-07T07:09:53.129Z,-19694.60
2018-11-07T07:12:21.486Z,-20952.66
2018-11-07T07:14:49.847Z,-21110.63
2018-11-07T07:17:18.187Z,-21034.33
2018-11-07T07:19:46.488Z,-20217.50
2018-11-07T07:22:14.870Z,-21113.34
2018-11-07T07:24:43.269Z,-21114.32
2018-11-07T07:27:11.634Z,-21106.36
2018-11-07T07:29:39.983Z,-19937.16
2018-11-07T07:32:08.427Z,-19482.71
2018-11-07T07:34:36.812Z,-19177.69
2018-11-07T07:37:05.764Z,-18322.41
2018-11-07T07:39:34.241Z,-20196.33
2018-11-07T07:42:02.820Z,-18736.09
2018-11-07T07:44:31.305Z,-17923.29
2018-11-07T07:46:59.740Z,-20116.98
2018-11-07T07:49:28.139Z,-20458.63
2018-11-07T07:51:56.563Z,-20707.99
2018-11-07T07:54:24.944Z,-20153.95
2018-11-07T07:56:53.303Z,-21047.10
2018-11-07T07:59:21.685Z,-20741.49
2018-11-07T08:01:50.200Z,-19715.91
2018-11-07T08:04:18.768Z,-21104.54
2018-11-07T08:06:47.292Z,-21143.93
2018-11-07T08:09:16.117Z,-20587.77
2018-11-07T08:11:44.504Z,-20343.27
2018-11-07T08:14:12.824Z,-20266.03
2018-11-07T08:16:41.260Z,-21144.49
2018-11-07T08:19:10.098Z,-21153.88
2018-11-07T08:21:38.521Z,-21157.15
2018-11-07T08:24:06.893Z,-21163.26
2018-11-07T08:26:35.495Z,-21163.82
2018-11-07T08:29:04.051Z,-21164.68
2018-11-07T08:31:32.740Z,-21168.23
2018-11-07T08:34:01.128Z,-21165.53
2018-11-07T08:36:29.584Z,-21169.23
2018-11-07T08:38:57.933Z,-21173.20
2018-11-07T08:41:26.417Z,-21179.30
2018-11-07T08:43:54.774Z,-21182.72
2018-11-07T08:46:23.124Z,-21185.98
2018-11-07T08:48:51.532Z,-21182.86
2018-11-07T08:51:19.952Z,-21188.82
2018-11-07T08:53:48.409Z,-21190.52
2018-11-07T08:56:16.728Z,-21195.21
2018-11-07T08:58:45.136Z,-21187.83
2018-11-07T09:01:13.586Z,-21190.81
2018-11-07T09:03:41.863Z,-21188.82
2018-11-07T09:06:10.264Z,-21184.00
2018-11-07T09:08:38.716Z,-21182.58
2018-11-07T09:11:07.192Z,-21184.00
2018-11-07T09:13:35.614Z,-21185.27
2018-11-07T09:16:04.003Z,-21186.13
2018-11-07T09:18:32.456Z,-21190.52
2018-11-07T09:21:00.818Z,-21178.31
2018-11-07T09:23:29.223Z,-21195.92
2018-11-07T09:25:57.720Z,-21198.19
2018-11-07T09:28:26.173Z,-21221.02
2018-11-07T09:30:54.537Z,-21223.01
2018-11-07T09:33:22.961Z,-21219.60
2018-11-07T09:35:51.384Z,-21223.57
2018-11-07T09:38:19.775Z,-21235.62
2018-11-07T09:40:48.121Z,-21236.47
2018-11-07T09:43:16.481Z,-21242.98
2018-11-07T09:45:44.861Z,-21252.04
2018-11-07T09:48:13.233Z,-21237.04
2018-11-07T09:50:41.794Z,-21232.50
2018-11-07T09:53:10.167Z,-21250.06
2018-11-07T09:55:38.511Z,-21266.91
2018-11-07T09:58:06.845Z,-21263.80
2018-11-07T10:00:35.193Z,-21265.77
2018-11-07T10:03:03.530Z,-21252.75
2018-11-07T10:05:31.977Z,-21250.77
2018-11-07T10:08:00.353Z,-21246.10
2018-11-07T10:10:28.782Z,-21242.70
2018-11-07T10:12:57.106Z,-21240.29
2018-11-07T10:15:25.492Z,-21250.63
2018-11-07T10:17:53.884Z,-21251.47
2018-11-07T10:20:23.211Z,-21240.86
2018-11-07T10:22:51.576Z,-21235.34
2018-11-07T10:25:20.167Z,-21238.31
2018-11-07T10:27:48.819Z,-21232.93
2018-11-07T10:30:18.337Z,-21241.85
2018-11-07T10:32:47.673Z,-21240.01
2018-11-07T10:35:16.168Z,-21242.84
2018-11-07T10:37:44.666Z,-21247.79
2018-11-07T10:40:15.440Z,-21250.34
2018-11-07T10:42:43.956Z,-21252.32
2018-11-07T10:45:12.750Z,-21252.89
2018-11-07T10:47:41.540Z,-21246.38
2018-11-07T10:50:11.309Z,-21244.25
2018-11-07T10:52:40.503Z,-21246.10
2018-11-07T10:55:09.513Z,-21250.06
2018-11-07T10:57:38.117Z,-21253.32
2018-11-07T11:00:12.793Z,-21254.59
2018-11-07T11:02:47.318Z,-21254.45
2018-11-07T11:05:17.337Z,-21257.99
2018-11-07T11:07:45.750Z,-21264.78
2018-11-07T11:10:14.455Z,-21271.43
2018-11-07T11:12:43.992Z,-21272.42
2018-11-07T11:15:12.439Z,-21279.35
2018-11-07T11:17:40.883Z,-21290.38
2018-11-07T11:20:11.091Z,-21285.71
2018-11-07T11:22:39.416Z,-21293.49
2018-11-07T11:25:07.799Z,-21303.94
2018-11-07T11:27:36.285Z,-21314.67
2018-11-07T11:30:05.328Z,-21339.93
2018-11-07T11:32:33.800Z,-21340.91
2018-11-07T11:35:02.743Z,-21364.73
2018-11-07T11:37:31.089Z,-21398.51
2018-11-07T11:39:59.506Z,-21395.55
2018-11-07T11:42:27.887Z,-21404.98
2018-11-07T11:45:16.494Z,-21431.25
2018-11-07T11:47:52.796Z,-21439.53
2018-11-07T11:50:21.691Z,-21442.20
2018-11-07T11:52:50.344Z,-21465.06
2018-11-07T11:55:18.777Z,-21470.95
2018-11-07T11:57:47.572Z,-21483.70
2018-11-07T12:00:17.218Z,-21488.60
2018-11-07T12:02:46.125Z,-21492.38
2018-11-07T12:05:15.517Z,-21488.60
2018-11-07T12:07:44.046Z,-21478.65
2018-11-07T12:10:17.831Z,-21512.11
2018-11-07T12:12:48.567Z,-21513.64
2018-11-07T12:15:18.000Z,-21511.55
2018-11-07T12:17:46.492Z,-21521.19
2018-11-07T12:20:14.757Z,-21539.21
2018-11-07T12:22:44.103Z,-21535.17
2018-11-07T12:25:13.601Z,-21564.61
2018-11-07T12:27:42.412Z,-21572.29
2018-11-07T12:30:13.963Z,-21588.45
2018-11-07T12:32:43.464Z,-21539.36
2018-11-07T12:35:11.963Z,-21534.46
2018-11-07T12:37:40.661Z,-21552.62
2018-11-07T12:40:09.729Z,-21578.97
2018-11-07T12:42:38.219Z,-21560.15
2018-11-07T12:45:08.145Z,-21549.41
2018-11-07T12:47:36.540Z,-21571.17
2018-11-07T12:50:05.813Z,-21588.17
2018-11-07T12:52:34.127Z,-21592.07
2018-11-07T12:55:02.514Z,-21609.33
2018-11-07T12:57:30.958Z,-21592.76
2018-11-07T12:59:59.384Z,-21563.91
2018-11-07T13:02:27.757Z,-21599.03
2018-11-07T13:04:56.080Z,-21600.98
2018-11-07T13:07:24.458Z,-21615.03
2018-11-07T13:09:52.838Z,-21595.97
2018-11-07T13:12:21.140Z,-21566.15
2018-11-07T13:14:49.596Z,-21585.24
2018-11-07T13:17:18.059Z,-21552.06
2018-11-07T13:19:46.394Z,-21584.41
2018-11-07T13:22:14.835Z,-21563.63
2018-11-07T13:24:43.167Z,-21559.31
2018-11-07T13:27:11.644Z,-21575.49
2018-11-07T13:29:40.032Z,-21547.59
2018-11-07T13:32:08.467Z,-21603.07
2018-11-07T13:34:36.852Z,-21616.98
2018-11-07T13:37:05.343Z,-21557.64
2018-11-07T13:39:33.627Z,-21546.20
2018-11-07T13:42:01.912Z,-21534.75
2018-11-07T13:44:30.296Z,-21527.62
2018-11-07T13:46:58.608Z,-21595.82
2018-11-07T13:49:27.044Z,-21591.09
2018-11-07T13:51:55.363Z,-21552.90
2018-11-07T13:54:23.798Z,-21549.27
2018-11-07T13:56:52.156Z,-21556.52
2018-11-07T13:59:20.497Z,-21547.17
2018-11-07T14:01:48.771Z,-21540.47
2018-11-07T14:04:17.200Z,-21498.67
2018-11-07T14:06:45.561Z,-21471.93
2018-11-07T14:09:13.950Z,-21453.29
2018-11-07T14:11:42.414Z,-21459.88
2018-11-07T14:14:10.831Z,-21450.20
2018-11-07T14:16:39.402Z,-21444.17
2018-11-07T14:19:07.908Z,-21448.65
2018-11-07T14:21:36.202Z,-21442.62
2018-11-07T14:24:04.736Z,-21419.59
2018-11-07T14:26:33.257Z,-21407.79
2018-11-07T14:29:01.658Z,-21412.57
2018-11-07T14:31:30.093Z,-21396.96
2018-11-07T14:33:58.522Z,-21393.02
2018-11-07T14:36:27.031Z,-21401.04
2018-11-07T14:38:55.416Z,-21400.76
2018-11-07T14:41:23.733Z,-21413.41
2018-11-07T14:43:52.172Z,-21401.32
2018-11-07T14:46:20.555Z,-21395.70
2018-11-07T14:48:48.823Z,-21391.90
2018-11-07T14:51:17.236Z,-21387.54
2018-11-07T14:53:45.655Z,-21378.53
2018-11-07T14:56:13.959Z,-21371.21
2018-11-07T14:58:42.324Z,-21384.30
2018-11-07T15:01:10.652Z,-21379.52
2018-11-07T15:03:39.000Z,-21367.13
2018-11-07T15:06:07.400Z,-21365.57
2018-11-07T15:08:36.826Z,-21374.03
2018-11-07T15:11:05.522Z,-21353.04
2018-11-07T15:13:33.773Z,-21362.90
2018-11-07T15:16:02.211Z,-21356.84
2018-11-07T15:18:30.618Z,-21360.36
2018-11-07T15:20:58.991Z,-21353.18
2018-11-07T15:23:27.346Z,-21340.63
2018-11-07T15:25:55.678Z,-21340.77
2018-11-07T15:28:24.052Z,-21342.89
2018-11-07T15:30:52.430Z,-21345.86
2018-11-07T15:33:20.789Z,-21344.72
2018-11-07T15:35:49.143Z,-21338.66
2018-11-07T15:38:17.432Z,-21341.62
2018-11-07T15:40:45.815Z,-21335.13
2018-11-07T15:43:14.243Z,-21332.45
2018-11-07T15:45:42.604Z,-21327.38
2018-11-07T15:48:11.033Z,-21324.55
2018-11-07T15:50:44.576Z,-21323.71
2018-11-07T15:53:12.949Z,-21303.52
2018-11-07T15:55:41.275Z,-21319.48
2018-11-07T15:58:09.620Z,-21311.99
2018-11-07T16:00:38.007Z,-21315.94
2018-11-07T16:03:06.386Z,-21314.53
2018-11-07T16:05:34.689Z,-21310.72
2018-11-07T16:08:03.055Z,-21315.66
2018-11-07T16:10:31.407Z,-21310.01
2018-11-07T16:12:59.762Z,-21311.99
2018-11-07T16:15:28.237Z,-21303.94
2018-11-07T16:17:56.471Z,-21300.97
2018-11-07T16:20:24.847Z,-21296.73
2018-11-07T16:22:53.267Z,-21305.92
2018-11-07T16:25:21.532Z,-21311.99
2018-11-07T16:27:49.846Z,-21310.01
2018-11-07T16:30:19.499Z,-21299.56
2018-11-07T16:32:47.846Z,-21300.97
2018-11-07T16:35:16.462Z,-21299.14
2018-11-07T16:37:44.887Z,-21290.80
2018-11-07T16:40:14.577Z,-21286.70
2018-11-07T16:42:43.659Z,-21283.45
2018-11-07T16:45:12.916Z,-21288.40
2018-11-07T16:47:41.333Z,-21292.78
2018-11-07T16:50:10.927Z,-21288.54
2018-11-07T16:52:39.339Z,-21284.44
2018-11-07T16:55:07.916Z,-21289.53
2018-11-07T16:57:36.776Z,-21284.44
2018-11-07T17:00:07.978Z,-21284.72
2018-11-07T17:02:36.303Z,-21284.44
2018-11-07T17:05:05.021Z,-21285.85
2018-11-07T17:07:33.297Z,-21287.12
2018-11-07T17:10:01.804Z,-21282.60
2018-11-07T17:12:30.179Z,-21281.75
2018-11-07T17:14:58.501Z,-21277.79
2018-11-07T17:17:28.152Z,-21289.39
2018-11-07T17:19:56.622Z,-21291.93
2018-11-07T17:22:24.956Z,-21284.30
2018-11-07T17:24:53.291Z,-21286.28
2018-11-07T17:27:21.625Z,-21285.29
2018-11-07T17:29:49.962Z,-21292.64
2018-11-07T17:32:18.537Z,-21284.58
2018-11-07T17:34:46.931Z,-21274.12
2018-11-07T17:37:15.366Z,-21289.82
2018-11-07T17:39:43.653Z,-21286.56
2018-11-07T17:42:12.053Z,-21289.39
2018-11-07T17:44:40.758Z,-21287.55
2018-11-07T17:47:09.204Z,-21275.54
2018-11-07T17:49:37.559Z,-21284.44
2018-11-07T17:52:07.159Z,-21294.76
2018-11-07T17:54:36.686Z,-21295.75
2018-11-07T17:57:06.309Z,-21288.26
2018-11-07T17:59:35.741Z,-21283.73
2018-11-07T18:02:04.131Z,-21281.61
2018-11-07T18:04:32.517Z,-21277.65
2018-11-07T18:07:00.840Z,-21285.99
2018-11-07T18:09:29.276Z,-21289.96
2018-11-07T18:11:57.580Z,-21282.04
2018-11-07T18:14:25.955Z,-21286.70
2018-11-07T18:16:54.427Z,-21276.95
2018-11-07T18:19:22.775Z,-21282.18
2018-11-07T18:21:51.152Z,-21276.66
2018-11-07T18:24:19.497Z,-21281.33
2018-11-07T18:26:47.860Z,-21289.96
2018-11-07T18:29:16.318Z,-21275.54
2018-11-07T18:31:44.650Z,-21274.68
2018-11-07T18:34:13.558Z,-21269.87
2018-11-07T18:36:41.913Z,-21268.74
2018-11-07T18:39:11.575Z,-21275.54
2018-11-07T18:41:40.221Z,-21266.48
2018-11-07T18:44:08.682Z,-21268.32
2018-11-07T18:46:37.023Z,-21271.29
2018-11-07T18:49:05.325Z,-21261.81
2018-11-07T18:51:33.739Z,-21263.09
2018-11-07T18:54:02.081Z,-21264.50
2018-11-07T18:56:33.464Z,-21264.64
2018-11-07T18:59:01.873Z,-21265.35
2018-11-07T19:01:30.209Z,-21266.20
2018-11-07T19:03:58.535Z,-21265.63
2018-11-07T19:06:26.968Z,-21260.40
2018-11-07T19:08:55.304Z,-21261.25
2018-11-07T19:11:23.725Z,-21263.80
2018-11-07T19:13:52.271Z,-21254.31
2018-11-07T19:16:20.739Z,-21254.17
2018-11-07T19:18:49.201Z,-21250.91
2018-11-07T19:21:17.580Z,-21257.14
2018-11-07T19:23:46.040Z,-21253.18
2018-11-07T19:26:14.434Z,-21256.57
2018-11-07T19:28:42.866Z,-21251.47
2018-11-07T19:31:11.330Z,-21256.43
2018-11-07T19:33:39.713Z,-21253.32
2018-11-07T19:36:08.227Z,-21257.29
2018-11-07T19:38:36.671Z,-21258.42
2018-11-07T19:41:05.409Z,-21262.23
2018-11-07T19:43:33.898Z,-21255.87
2018-11-07T19:46:02.431Z,-21251.05
2018-11-07T19:48:30.837Z,-21256.43
2018-11-07T19:50:59.266Z,-21255.16
2018-11-07T19:53:27.711Z,-21245.67
2018-11-07T19:55:56.053Z,-21248.64
2018-11-07T19:58:24.509Z,-21247.09
2018-11-07T20:00:53.669Z,-21241.85
2018-11-07T20:03:22.073Z,-21241.00
2018-11-07T20:05:50.473Z,-21242.70
2018-11-07T20:08:18.936Z,-21242.42
2018-11-07T20:10:47.393Z,-21241.57
2018-11-07T20:13:15.793Z,-21250.34
2018-11-07T20:15:44.169Z,-21246.24
2018-11-07T20:18:12.581Z,-21249.50
2018-11-07T20:20:41.031Z,-21259.27
2018-11-07T20:23:09.531Z,-21250.91
2018-11-07T20:25:37.935Z,-21246.24
2018-11-07T20:28:06.728Z,-21242.42
2018-11-07T20:30:35.196Z,-21238.31
2018-11-07T20:33:04.380Z,-21241.14
2018-11-07T20:35:32.760Z,-21238.59
2018-11-07T20:38:01.227Z,-21246.52
2018-11-07T20:40:29.676Z,-21244.68
2018-11-07T20:42:58.029Z,-21239.87
2018-11-07T20:45:26.549Z,-21242.70
2018-11-07T20:47:55.091Z,-21238.73
2018-11-07T20:50:23.512Z,-21242.13
2018-11-07T20:52:51.969Z,-21243.41
2018-11-07T20:55:20.268Z,-21240.86
2018-11-07T20:57:48.742Z,-21239.16
2018-11-07T21:00:19.318Z,-21241.28
2018-11-07T21:02:48.858Z,-21244.82
2018-11-07T21:05:17.375Z,-21236.33
2018-11-07T21:07:45.745Z,-21238.16
2018-11-07T21:10:16.785Z,-21242.70
2018-11-07T21:12:45.677Z,-21233.07
2018-11-07T21:15:15.321Z,-21241.14
2018-11-07T21:17:44.332Z,-21237.17
2018-11-07T21:20:12.720Z,-21237.74
2018-11-07T21:22:41.523Z,-21228.82
2018-11-07T21:25:09.994Z,-21229.67
2018-11-07T21:27:38.428Z,-21229.67
2018-11-07T21:30:10.747Z,-21235.05
2018-11-07T21:32:39.492Z,-21235.48
2018-11-07T21:35:08.109Z,-21231.08
2018-11-07T21:37:36.598Z,-21233.63
2018-11-07T21:40:06.604Z,-21238.02
2018-11-07T21:42:34.976Z,-21241.28
2018-11-07T21:45:03.427Z,-21237.89
2018-11-07T21:47:31.844Z,-21237.89
2018-11-07T21:50:00.352Z,-21232.07
2018-11-07T21:52:28.734Z,-21235.76
2018-11-07T21:54:57.181Z,-21238.02
2018-11-07T21:57:25.626Z,-21242.56
2018-11-07T21:59:54.137Z,-21235.90
2018-11-07T22:02:22.498Z,-21240.71
2018-11-07T22:04:51.129Z,-21246.10
2018-11-07T22:07:19.506Z,-21244.68
2018-11-07T22:09:47.865Z,-21246.80
2018-11-07T22:12:16.219Z,-21250.63
2018-11-07T22:14:44.634Z,-21247.79
2018-11-07T22:17:12.914Z,-21245.53
2018-11-07T22:19:41.356Z,-21236.89
2018-11-07T22:22:09.696Z,-21240.15
2018-11-07T22:24:38.070Z,-21239.58
2018-11-07T22:27:06.793Z,-21239.44
2018-11-07T22:29:35.197Z,-21239.30
2018-11-07T22:32:03.728Z,-21240.71
2018-11-07T22:34:32.099Z,-21125.76
2018-11-07T22:37:00.552Z,-20948.20
2018-11-07T22:39:28.921Z,-21242.42
2018-11-07T22:41:57.312Z,-21235.38
2018-11-07T22:44:25.620Z,-20899.30
2018-11-07T22:46:54.021Z,-21245.25
2018-11-07T22:49:22.311Z,-21246.38
2018-11-07T22:51:50.651Z,-21248.22
2018-11-07T22:54:19.066Z,-21253.88
2018-11-07T22:56:47.494Z,-21252.46
2018-11-07T22:59:15.930Z,-21253.18
2018-11-07T23:01:44.363Z,-21252.18
2018-11-07T23:04:12.910Z,-21256.29
2018-11-07T23:06:41.313Z,-21244.96
2018-11-07T23:09:12.373Z,-21247.52
2018-11-07T23:11:41.716Z,-21251.20
2018-11-07T23:14:11.580Z,-21243.83
2018-11-07T23:16:40.169Z,-21246.66
2018-11-07T23:19:08.788Z,-21242.42
2018-11-07T23:21:37.359Z,-21246.10
2018-11-07T23:24:06.353Z,-21249.21
2018-11-07T23:26:35.619Z,-21248.36
2018-11-07T23:29:04.167Z,-21243.12
2018-11-07T23:31:32.612Z,-21247.52
2018-11-07T23:34:01.782Z,-21247.23
2018-11-07T23:36:30.375Z,-21248.08
2018-11-07T23:38:58.750Z,-21246.95
2018-11-07T23:41:27.072Z,-21244.54
2018-11-07T23:43:55.470Z,-21245.11
2018-11-07T23:46:23.873Z,-21251.20
2018-11-07T23:48:52.292Z,-21254.45
2018-11-07T23:51:20.614Z,-21255.16
2018-11-07T23:53:48.980Z,-21255.16
2018-11-07T23:58:54.113Z,-21258.28
